Time,TemperatureF,DewpointF,PressureIn,WindDirection,WindDirectionDegrees,WindSpeedMPH,WindSpeedGustMPH,Humidity,HourlyPrecipIn,Conditions,Clouds,dailyrainin,SoftwareType,DateUTC
2013-09-21 00:04:00,68.2,57.8,29.80,NW,321,5.0,11.0,69,0.00,,,0.00,WUHU216DAVISVP2,2013-09-21 07:04:00,
2013-09-21 00:09:00,68.0,57.6,29.80,WNW,294,12.0,12.0,69,0.00,,,0.00,WUHU216DAVISVP2,2013-09-21 07:09:00,
2013-09-21 00:14:00,67.9,57.9,29.79,NW,309,5.0,12.0,70,0.00,,,0.00,WUHU216DAVISVP2,2013-09-21 07:14:00,
2013-09-21 00:19:00,67.7,57.7,29.79,NW,322,0.0,10.0,70,0.00,,,0.00,WUHU216DAVISVP2,2013-09-21 07:19:00,
2013-09-21 00:24:00,67.5,57.9,29.79,NW,312,6.0,9.0,71,0.00,,,0.00,WUHU216DAVISVP2,2013-09-21 07:24:00,
2013-09-21 00:29:00,67.4,57.8,29.79,WNW,303,4.0,9.0,71,0.00,,,0.00,WUHU216DAVISVP2,2013-09-21 07:29:00,
2013-09-21 00:34:00,67.2,57.5,29.79,NW,313,7.0,8.0,71,0.00,,,0.00,WUHU216DAVISVP2,2013-09-21 07:34:00,
2013-09-21 00:39:00,67.1,57.8,29.79,NW,313,2.0,7.0,72,0.00,,,0.00,WUHU216DAVISVP2,2013-09-21 07:39:00,
2013-09-21 00:44:00,66.9,57.6,29.79,NW,312,3.0,6.0,72,0.00,,,0.00,WUHU216DAVISVP2,2013-09-21 07:44:00,
2013-09-21 00:49:00,66.8,57.5,29.80,NW,311,4.0,8.0,72,0.00,,,0.00,WUHU216DAVISVP2,2013-09-21 07:49:00,
2013-09-21 00:54:00,66.7,57.8,29.80,WNW,300,7.0,8.0,73,0.00,,,0.00,WUHU216DAVISVP2,2013-09-21 07:54:00,
2013-09-21 00:59:00,66.5,57.7,29.80,NW,316,4.0,8.0,73,0.00,,,0.00,WUHU216DAVISVP2,2013-09-21 07:59:00,
2013-09-21 01:04:00,66.4,58.0,29.80,WNW,294,5.0,8.0,74,0.00,,,0.00,WUHU216DAVISVP2,2013-09-21 08:04:00,
2013-09-21 01:09:00,66.2,57.8,29.80,WNW,289,4.0,7.0,74,0.00,,,0.00,WUHU216DAVISVP2,2013-09-21 08:09:00,
2013-09-21 01:14:00,66.0,57.6,29.80,WNW,295,2.0,7.0,74,0.00,,,0.00,WUHU216DAVISVP2,2013-09-21 08:14:00,
2013-09-21 01:19:00,65.8,57.8,29.80,WNW,282,7.0,7.0,75,0.00,,,0.00,WUHU216DAVISVP2,2013-09-21 08:19:00,
2013-09-21 01:24:00,65.6,57.6,29.80,NW,306,2.0,8.0,75,0.00,,,0.00,WUHU216DAVISVP2,2013-09-21 08:24:00,
2013-09-21 01:29:00,65.4,57.7,29.80,NNW,331,0.0,8.0,76,0.00,,,0.00,WUHU216DAVISVP2,2013-09-21 08:29:00,
2013-09-21 01:34:00,65.2,57.9,29.81,NW,321,5.0,9.0,77,0.00,,,0.00,WUHU216DAVISVP2,2013-09-21 08:34:00,
2013-09-21 01:39:00,65.0,57.7,29.81,NW,309,5.0,9.0,77,0.00,,,0.00,WUHU216DAVISVP2,2013-09-21 08:39:00,
2013-09-21 01:44:00,64.9,58.0,29.81,NW,306,7.0,7.0,78,0.00,,,0.00,WUHU216DAVISVP2,2013-09-21 08:44:00,
2013-09-21 01:49:00,64.9,58.0,29.81,NW,305,2.0,8.0,78,0.00,,,0.00,WUHU216DAVISVP2,2013-09-21 08:49:00,
2013-09-21 01:54:00,64.7,57.8,29.81,NW,305,4.0,8.0,78,0.00,,,0.00,WUHU216DAVISVP2,2013-09-21 08:54:00,
2013-09-21 01:59:00,64.6,57.7,29.81,NW,306,1.0,8.0,78,0.00,,,0.00,WUHU216DAVISVP2,2013-09-21 08:59:00,
2013-09-21 02:04:00,64.6,58.0,29.81,WNW,303,0.0,8.0,79,0.00,,,0.00,WUHU216DAVISVP2,2013-09-21 09:04:00,
2013-09-21 02:09:00,64.5,57.9,29.81,WNW,302,0.0,8.0,79,0.00,,,0.00,WUHU216DAVISVP2,2013-09-21 09:09:00,
2013-09-21 02:14:00,64.4,57.8,29.81,WNW,302,2.0,6.0,79,0.00,,,0.00,WUHU216DAVISVP2,2013-09-21 09:14:00,
2013-09-21 02:19:00,64.3,57.7,29.81,WNW,301,0.0,6.0,79,0.00,,,0.00,WUHU216DAVISVP2,2013-09-21 09:19:00,
2013-09-21 02:24:00,64.2,58.0,29.81,WNW,299,4.0,5.0,80,0.00,,,0.00,WUHU216DAVISVP2,2013-09-21 09:24:00,
2013-09-21 02:29:00,64.0,57.8,29.81,WNW,288,5.0,6.0,80,0.00,,,0.00,WUHU216DAVISVP2,2013-09-21 09:29:00,
2013-09-21 02:34:00,63.9,57.6,29.81,WNW,296,0.0,6.0,80,0.00,,,0.00,WUHU216DAVISVP2,2013-09-21 09:34:00,
2013-09-21 02:39:00,63.7,57.4,29.81,WNW,296,0.0,6.0,80,0.00,,,0.00,WUHU216DAVISVP2,2013-09-21 09:39:00,
2013-09-21 02:44:00,63.6,57.3,29.81,WNW,296,0.0,5.0,80,0.00,,,0.00,WUHU216DAVISVP2,2013-09-21 09:44:00,
2013-09-21 02:49:00,63.5,57.6,29.82,WNW,296,0.0,5.0,81,0.00,,,0.00,WUHU216DAVISVP2,2013-09-21 09:49:00,
2013-09-21 02:54:00,63.3,57.4,29.82,WNW,296,2.0,5.0,81,0.00,,,0.00,WUHU216DAVISVP2,2013-09-21 09:54:00,
2013-09-21 02:59:00,63.1,57.6,29.82,WNW,296,0.0,4.0,82,0.00,,,0.00,WUHU216DAVISVP2,2013-09-21 09:59:00,
2013-09-21 03:04:00,63.0,57.5,29.82,WNW,296,0.0,5.0,82,0.00,,,0.00,WUHU216DAVISVP2,2013-09-21 10:04:00,
2013-09-21 03:09:00,62.9,57.4,29.82,WNW,296,0.0,5.0,82,0.00,,,0.00,WUHU216DAVISVP2,2013-09-21 10:09:00,
2013-09-21 03:14:00,62.9,57.4,29.82,WNW,296,0.0,2.0,82,0.00,,,0.00,WUHU216DAVISVP2,2013-09-21 10:14:00,
2013-09-21 03:19:00,62.7,57.2,29.82,WNW,296,0.0,0.0,82,0.00,,,0.00,WUHU216DAVISVP2,2013-09-21 10:19:00,
2013-09-21 03:24:00,62.7,57.2,29.82,WNW,296,0.0,0.0,82,0.00,,,0.00,WUHU216DAVISVP2,2013-09-21 10:24:00,
2013-09-21 03:29:00,62.6,56.7,29.82,WNW,296,0.0,0.0,81,0.00,,,0.00,WUHU216DAVISVP2,2013-09-21 10:29:00,
2013-09-21 03:34:00,62.4,56.8,29.82,WNW,296,0.0,1.0,82,0.00,,,0.00,WUHU216DAVISVP2,2013-09-21 10:34:00,
2013-09-21 03:39:00,62.3,56.8,29.82,WNW,296,0.0,1.0,82,0.00,,,0.00,WUHU216DAVISVP2,2013-09-21 10:39:00,
2013-09-21 03:44:00,62.2,57.0,29.82,WNW,296,0.0,0.0,83,0.00,,,0.00,WUHU216DAVISVP2,2013-09-21 10:44:00,
2013-09-21 03:49:00,62.0,56.8,29.82,WNW,296,0.0,0.0,83,0.00,,,0.00,WUHU216DAVISVP2,2013-09-21 10:49:00,
2013-09-21 03:54:00,62.0,56.8,29.82,WNW,296,0.0,0.0,83,0.00,,,0.00,WUHU216DAVISVP2,2013-09-21 10:54:00,
2013-09-21 03:59:00,61.7,56.8,29.82,WNW,296,0.0,1.0,84,0.00,,,0.00,WUHU216DAVISVP2,2013-09-21 10:59:00,
2013-09-21 04:04:00,61.6,56.7,29.83,WNW,296,0.0,1.0,84,0.00,,,0.00,WUHU216DAVISVP2,2013-09-21 11:04:00,
2013-09-21 04:09:00,61.5,57.0,29.83,WNW,296,0.0,0.0,85,0.00,,,0.00,WUHU216DAVISVP2,2013-09-21 11:09:00,
2013-09-21 04:14:00,61.6,57.4,29.82,WNW,296,0.0,0.0,86,0.00,,,0.00,WUHU216DAVISVP2,2013-09-21 11:14:00,
2013-09-21 04:19:00,61.6,57.4,29.82,WNW,296,0.0,0.0,86,0.00,,,0.00,WUHU216DAVISVP2,2013-09-21 11:19:00,
2013-09-21 04:24:00,61.5,57.3,29.82,WNW,296,0.0,0.0,86,0.00,,,0.00,WUHU216DAVISVP2,2013-09-21 11:24:00,
2013-09-21 04:29:00,61.4,57.2,29.82,WNW,296,0.0,0.0,86,0.00,,,0.00,WUHU216DAVISVP2,2013-09-21 11:29:00,
2013-09-21 04:34:00,61.3,56.8,29.82,WNW,296,0.0,0.0,85,0.00,,,0.00,WUHU216DAVISVP2,2013-09-21 11:34:00,
2013-09-21 04:39:00,61.2,56.7,29.82,WNW,296,0.0,0.0,85,0.00,,,0.00,WUHU216DAVISVP2,2013-09-21 11:39:00,
2013-09-21 04:44:00,61.1,56.6,29.82,WNW,296,0.0,0.0,85,0.00,,,0.00,WUHU216DAVISVP2,2013-09-21 11:44:00,
2013-09-21 04:49:00,61.0,56.5,29.82,WNW,296,0.0,0.0,85,0.00,,,0.00,WUHU216DAVISVP2,2013-09-21 11:49:00,
2013-09-21 04:54:00,60.9,56.4,29.82,WNW,296,0.0,0.0,85,0.00,,,0.00,WUHU216DAVISVP2,2013-09-21 11:54:00,
2013-09-21 04:59:00,60.8,56.3,29.82,WNW,296,0.0,0.0,85,0.00,,,0.00,WUHU216DAVISVP2,2013-09-21 11:59:00,
2013-09-21 05:04:00,60.7,56.2,29.82,WNW,296,0.0,0.0,85,0.00,,,0.00,WUHU216DAVISVP2,2013-09-21 12:04:00,
2013-09-21 05:09:00,60.6,56.4,29.82,WNW,296,0.0,0.0,86,0.00,,,0.00,WUHU216DAVISVP2,2013-09-21 12:09:00,
2013-09-21 05:14:00,60.4,56.2,29.82,WNW,296,0.0,0.0,86,0.00,,,0.00,WUHU216DAVISVP2,2013-09-21 12:14:00,
2013-09-21 05:19:00,60.4,56.2,29.82,WNW,296,0.0,0.0,86,0.00,,,0.00,WUHU216DAVISVP2,2013-09-21 12:19:00,
2013-09-21 05:24:00,60.3,56.1,29.82,WNW,296,0.0,0.0,86,0.00,,,0.00,WUHU216DAVISVP2,2013-09-21 12:24:00,
2013-09-21 05:29:00,60.2,56.3,29.82,WNW,296,0.0,0.0,87,0.00,,,0.00,WUHU216DAVISVP2,2013-09-21 12:29:00,
2013-09-21 05:34:00,60.1,56.2,29.82,WNW,296,0.0,0.0,87,0.00,,,0.00,WUHU216DAVISVP2,2013-09-21 12:34:00,
2013-09-21 05:39:00,60.0,56.1,29.82,WNW,296,0.0,0.0,87,0.00,,,0.00,WUHU216DAVISVP2,2013-09-21 12:39:00,
2013-09-21 05:44:00,60.0,56.4,29.82,WNW,296,0.0,2.0,88,0.00,,,0.00,WUHU216DAVISVP2,2013-09-21 12:44:00,
2013-09-21 05:49:00,59.9,56.3,29.82,WNW,296,0.0,2.0,88,0.00,,,0.00,WUHU216DAVISVP2,2013-09-21 12:49:00,
2013-09-21 05:54:00,59.9,56.3,29.82,WNW,296,0.0,0.0,88,0.00,,,0.00,WUHU216DAVISVP2,2013-09-21 12:54:00,
2013-09-21 05:59:00,59.9,56.3,29.82,WNW,296,0.0,0.0,88,0.00,,,0.00,WUHU216DAVISVP2,2013-09-21 12:59:00,
2013-09-21 06:04:00,59.9,56.3,29.82,WNW,296,0.0,0.0,88,0.00,,,0.00,WUHU216DAVISVP2,2013-09-21 13:04:00,
2013-09-21 06:09:00,59.8,56.2,29.82,WNW,296,0.0,1.0,88,0.00,,,0.00,WUHU216DAVISVP2,2013-09-21 13:09:00,
2013-09-21 06:14:00,59.8,56.2,29.82,WNW,296,0.0,1.0,88,0.00,,,0.00,WUHU216DAVISVP2,2013-09-21 13:14:00,
2013-09-21 06:19:00,59.8,56.5,29.82,WNW,296,0.0,0.0,89,0.00,,,0.00,WUHU216DAVISVP2,2013-09-21 13:19:00,
2013-09-21 06:24:00,59.8,56.5,29.82,WNW,296,0.0,0.0,89,0.00,,,0.00,WUHU216DAVISVP2,2013-09-21 13:24:00,
2013-09-21 06:29:00,59.7,56.5,29.82,WNW,296,0.0,3.0,89,0.00,,,0.00,WUHU216DAVISVP2,2013-09-21 13:29:00,
2013-09-21 06:34:00,59.8,56.5,29.83,WNW,296,0.0,3.0,89,0.00,,,0.00,WUHU216DAVISVP2,2013-09-21 13:34:00,
2013-09-21 06:39:00,59.7,56.4,29.83,WNW,296,0.0,3.0,89,0.00,,,0.00,WUHU216DAVISVP2,2013-09-21 13:39:00,
2013-09-21 06:44:00,59.8,56.5,29.83,WNW,296,0.0,3.0,89,0.00,,,0.00,WUHU216DAVISVP2,2013-09-21 13:44:00,
2013-09-21 06:49:00,59.7,56.4,29.83,WNW,296,0.0,2.0,89,0.00,,,0.00,WUHU216DAVISVP2,2013-09-21 13:49:00,
2013-09-21 06:54:00,59.7,56.4,29.82,WNW,296,0.0,0.0,89,0.00,,,0.00,WUHU216DAVISVP2,2013-09-21 13:54:00,
2013-09-21 06:59:00,59.6,56.3,29.83,WNW,296,0.0,0.0,89,0.00,,,0.00,WUHU216DAVISVP2,2013-09-21 13:59:00,
2013-09-21 07:04:00,59.6,56.4,29.82,WNW,296,0.0,0.0,89,0.00,,,0.00,WUHU216DAVISVP2,2013-09-21 14:04:00,
2013-09-21 07:09:00,59.5,56.3,29.83,WNW,296,0.0,3.0,89,0.00,,,0.00,WUHU216DAVISVP2,2013-09-21 14:09:00,
2013-09-21 07:14:00,59.5,56.3,29.83,WNW,296,0.0,3.0,89,0.00,,,0.00,WUHU216DAVISVP2,2013-09-21 14:14:00,
2013-09-21 07:19:00,59.5,56.3,29.83,WNW,296,0.0,3.0,89,0.00,,,0.00,WUHU216DAVISVP2,2013-09-21 14:19:00,
2013-09-21 07:24:00,59.5,56.3,29.83,WNW,296,0.0,3.0,89,0.00,,,0.00,WUHU216DAVISVP2,2013-09-21 14:24:00,
2013-09-21 07:29:00,59.3,55.7,29.83,WNW,296,0.0,0.0,88,0.00,,,0.00,WUHU216DAVISVP2,2013-09-21 14:29:00,
2013-09-21 07:34:00,59.3,55.7,29.83,WNW,296,0.0,0.0,88,0.00,,,0.00,WUHU216DAVISVP2,2013-09-21 14:34:00,
2013-09-21 07:39:00,59.2,56.0,29.83,WNW,296,0.0,0.0,89,0.00,,,0.00,WUHU216DAVISVP2,2013-09-21 14:39:00,
2013-09-21 07:44:00,59.2,56.0,29.84,WNW,296,0.0,0.0,89,0.00,,,0.00,WUHU216DAVISVP2,2013-09-21 14:44:00,
2013-09-21 07:49:00,59.3,56.1,29.84,WNW,296,2.0,2.0,89,0.00,,,0.00,WUHU216DAVISVP2,2013-09-21 14:49:00,
2013-09-21 07:54:00,59.4,56.5,29.84,WNW,296,0.0,2.0,90,0.00,,,0.00,WUHU216DAVISVP2,2013-09-21 14:54:00,
2013-09-21 07:59:00,59.5,56.6,29.84,WNW,296,0.0,1.0,90,0.00,,,0.00,WUHU216DAVISVP2,2013-09-21 14:59:00,
2013-09-21 08:04:00,59.7,56.8,29.84,WNW,296,0.0,3.0,90,0.00,,,0.00,WUHU216DAVISVP2,2013-09-21 15:04:00,
2013-09-21 08:09:00,59.9,57.0,29.84,WNW,296,0.0,3.0,90,0.00,,,0.00,WUHU216DAVISVP2,2013-09-21 15:09:00,
2013-09-21 08:14:00,60.2,57.6,29.84,WNW,296,0.0,3.0,91,0.00,,,0.00,WUHU216DAVISVP2,2013-09-21 15:14:00,
2013-09-21 08:19:00,60.5,57.6,29.84,WNW,296,2.0,3.0,90,0.00,,,0.00,WUHU216DAVISVP2,2013-09-21 15:19:00,
2013-09-21 08:24:00,61.0,58.0,29.85,WNW,296,2.0,4.0,90,0.00,,,0.00,WUHU216DAVISVP2,2013-09-21 15:24:00,
2013-09-21 08:29:00,61.6,58.3,29.85,NW,312,0.0,5.0,89,0.00,,,0.00,WUHU216DAVISVP2,2013-09-21 15:29:00,
2013-09-21 08:34:00,62.3,58.7,29.85,NW,313,5.0,6.0,88,0.00,,,0.00,WUHU216DAVISVP2,2013-09-21 15:34:00,
2013-09-21 08:39:00,62.9,58.7,29.85,NW,313,0.0,6.0,86,0.00,,,0.00,WUHU216DAVISVP2,2013-09-21 15:39:00,
2013-09-21 08:44:00,63.5,58.9,29.85,NW,315,0.0,6.0,85,0.00,,,0.00,WUHU216DAVISVP2,2013-09-21 15:44:00,
2013-09-21 08:49:00,64.1,59.5,29.85,NW,315,0.0,5.0,85,0.00,,,0.00,WUHU216DAVISVP2,2013-09-21 15:49:00,
2013-09-21 08:54:00,64.7,59.5,29.85,NW,316,0.0,5.0,83,0.00,,,0.00,WUHU216DAVISVP2,2013-09-21 15:54:00,
2013-09-21 08:59:00,65.3,59.7,29.85,NNW,334,5.0,7.0,82,0.00,,,0.00,WUHU216DAVISVP2,2013-09-21 15:59:00,
2013-09-21 09:04:00,66.1,59.8,29.85,NNW,335,0.0,7.0,80,0.00,,,0.00,WUHU216DAVISVP2,2013-09-21 16:04:00,
2013-09-21 09:09:00,66.6,59.6,29.85,NNW,335,5.0,5.0,78,0.00,,,0.00,WUHU216DAVISVP2,2013-09-21 16:09:00,
2013-09-21 09:14:00,67.1,59.8,29.85,NNW,329,0.0,6.0,77,0.00,,,0.00,WUHU216DAVISVP2,2013-09-21 16:14:00,
2013-09-21 09:19:00,67.6,59.9,29.85,NNW,329,0.0,6.0,76,0.00,,,0.00,WUHU216DAVISVP2,2013-09-21 16:19:00,
2013-09-21 09:24:00,68.0,59.9,29.85,NNW,329,0.0,3.0,75,0.00,,,0.00,WUHU216DAVISVP2,2013-09-21 16:24:00,
2013-09-21 09:29:00,68.5,60.0,29.85,NNW,329,0.0,3.0,74,0.00,,,0.00,WUHU216DAVISVP2,2013-09-21 16:29:00,
2013-09-21 09:34:00,69.0,60.1,29.85,North,349,2.0,4.0,73,0.00,,,0.00,WUHU216DAVISVP2,2013-09-21 16:34:00,
2013-09-21 09:39:00,69.7,60.4,29.85,North,355,0.0,5.0,72,0.00,,,0.00,WUHU216DAVISVP2,2013-09-21 16:39:00,
2013-09-21 09:44:00,70.1,60.0,29.85,North,355,0.0,5.0,70,0.00,,,0.00,WUHU216DAVISVP2,2013-09-21 16:44:00,
2013-09-21 09:49:00,70.3,60.6,29.85,North,355,0.0,4.0,71,0.00,,,0.00,WUHU216DAVISVP2,2013-09-21 16:49:00,
2013-09-21 09:54:00,70.6,60.5,29.85,North,355,0.0,4.0,70,0.00,,,0.00,WUHU216DAVISVP2,2013-09-21 16:54:00,
2013-09-21 09:59:00,70.8,60.3,29.85,North,355,2.0,5.0,69,0.00,,,0.00,WUHU216DAVISVP2,2013-09-21 16:59:00,
2013-09-21 10:04:00,71.0,60.1,29.85,North,350,2.0,5.0,68,0.00,,,0.00,WUHU216DAVISVP2,2013-09-21 17:04:00,
2013-09-21 10:09:00,71.2,60.3,29.84,North,350,0.0,4.0,68,0.00,,,0.00,WUHU216DAVISVP2,2013-09-21 17:09:00,
2013-09-21 10:14:00,71.7,60.4,29.84,ENE,70,3.0,4.0,67,0.00,,,0.00,WUHU216DAVISVP2,2013-09-21 17:14:00,
2013-09-21 10:19:00,72.3,60.5,29.84,ENE,74,0.0,4.0,66,0.00,,,0.00,WUHU216DAVISVP2,2013-09-21 17:19:00,
2013-09-21 10:24:00,73.0,60.3,29.84,ENE,74,0.0,4.0,64,0.00,,,0.00,WUHU216DAVISVP2,2013-09-21 17:24:00,
2013-09-21 10:29:00,73.7,60.1,29.84,ENE,74,0.0,4.0,62,0.00,,,0.00,WUHU216DAVISVP2,2013-09-21 17:29:00,
2013-09-21 10:34:00,74.3,61.1,29.84,ENE,74,0.0,0.0,63,0.00,,,0.00,WUHU216DAVISVP2,2013-09-21 17:34:00,
2013-09-21 10:39:00,74.5,60.4,29.84,ESE,119,0.0,5.0,61,0.00,,,0.00,WUHU216DAVISVP2,2013-09-21 17:39:00,
2013-09-21 10:44:00,74.8,60.7,29.84,SE,127,0.0,5.0,61,0.00,,,0.00,WUHU216DAVISVP2,2013-09-21 17:44:00,
2013-09-21 10:49:00,74.9,59.8,29.84,SE,128,0.0,0.0,59,0.00,,,0.00,WUHU216DAVISVP2,2013-09-21 17:49:00,
2013-09-21 10:54:00,75.2,60.1,29.84,SE,128,2.0,4.0,59,0.00,,,0.00,WUHU216DAVISVP2,2013-09-21 17:54:00,
2013-09-21 10:59:00,75.4,59.1,29.84,SE,128,0.0,6.0,57,0.00,,,0.00,WUHU216DAVISVP2,2013-09-21 17:59:00,
2013-09-21 11:04:00,75.6,59.8,29.84,SE,128,0.0,6.0,58,0.00,,,0.00,WUHU216DAVISVP2,2013-09-21 18:04:00,
2013-09-21 11:09:00,75.7,58.9,29.84,SE,128,0.0,1.0,56,0.00,,,0.00,WUHU216DAVISVP2,2013-09-21 18:09:00,
2013-09-21 11:14:00,75.8,59.5,29.83,SE,128,0.0,0.0,57,0.00,,,0.00,WUHU216DAVISVP2,2013-09-21 18:14:00,
2013-09-21 11:19:00,75.6,58.3,29.83,SE,132,1.0,7.0,55,0.00,,,0.00,WUHU216DAVISVP2,2013-09-21 18:19:00,
2013-09-21 11:24:00,75.8,58.5,29.83,SSE,167,5.0,7.0,55,0.00,,,0.00,WUHU216DAVISVP2,2013-09-21 18:24:00,
2013-09-21 11:29:00,76.1,58.8,29.83,East,97,5.0,7.0,55,0.00,,,0.00,WUHU216DAVISVP2,2013-09-21 18:29:00,
2013-09-21 11:34:00,76.6,58.9,29.83,SSE,165,0.0,7.0,54,0.00,,,0.00,WUHU216DAVISVP2,2013-09-21 18:34:00,
2013-09-21 11:39:00,77.1,59.3,29.82,SSE,151,5.0,9.0,54,0.00,,,0.00,WUHU216DAVISVP2,2013-09-21 18:39:00,
2013-09-21 11:45:00,77.8,58.9,29.82,SE,134,7.0,9.0,52,0.00,,,0.00,WUHU216DAVISVP2,2013-09-21 18:45:00,
2013-09-21 11:50:00,78.3,57.7,29.83,SSE,161,4.0,9.0,49,0.00,,,0.00,WUHU216DAVISVP2,2013-09-21 18:50:00,
2013-09-21 11:55:00,78.4,58.3,29.82,South,173,2.0,8.0,50,0.00,,,0.00,WUHU216DAVISVP2,2013-09-21 18:55:00,
2013-09-21 12:00:00,78.9,58.8,29.82,ESE,119,6.0,9.0,50,0.00,,,0.00,WUHU216DAVISVP2,2013-09-21 19:00:00,
2013-09-21 12:05:00,79.2,58.5,29.82,SE,132,7.0,9.0,49,0.00,,,0.00,WUHU216DAVISVP2,2013-09-21 19:05:00,
2013-09-21 12:10:00,79.4,58.1,29.82,WSW,240,6.0,11.0,48,0.00,,,0.00,WUHU216DAVISVP2,2013-09-21 19:10:00,
2013-09-21 12:15:00,79.4,58.7,29.82,SE,146,8.0,11.0,49,0.00,,,0.00,WUHU216DAVISVP2,2013-09-21 19:15:00,
2013-09-21 12:20:00,79.8,59.5,29.82,South,173,6.0,12.0,50,0.00,,,0.00,WUHU216DAVISVP2,2013-09-21 19:20:00,
2013-09-21 12:25:00,79.9,59.0,29.82,SSW,201,5.0,12.0,49,0.00,,,0.00,WUHU216DAVISVP2,2013-09-21 19:25:00,
2013-09-21 12:30:00,79.9,58.5,29.81,SSE,157,7.0,11.0,48,0.00,,,0.00,WUHU216DAVISVP2,2013-09-21 19:30:00,
2013-09-21 12:35:00,79.9,59.0,29.81,South,173,0.0,11.0,49,0.00,,,0.00,WUHU216DAVISVP2,2013-09-21 19:35:00,
2013-09-21 12:40:00,79.9,59.0,29.81,SSE,151,8.0,8.0,49,0.00,,,0.00,WUHU216DAVISVP2,2013-09-21 19:40:00,
2013-09-21 12:45:00,80.1,59.8,29.81,SW,216,0.0,9.0,50,0.00,,,0.00,WUHU216DAVISVP2,2013-09-21 19:45:00,
2013-09-21 12:50:00,80.5,59.7,29.80,South,189,1.0,9.0,49,0.00,,,0.00,WUHU216DAVISVP2,2013-09-21 19:50:00,
2013-09-21 12:55:00,80.8,60.0,29.80,South,191,5.0,9.0,49,0.00,,,0.00,WUHU216DAVISVP2,2013-09-21 19:55:00,
2013-09-21 13:00:00,81.0,60.1,29.80,SSW,199,0.0,9.0,49,0.00,,,0.00,WUHU216DAVISVP2,2013-09-21 20:00:00,
2013-09-21 13:05:00,81.4,59.9,29.80,SE,134,0.0,8.0,48,0.00,,,0.00,WUHU216DAVISVP2,2013-09-21 20:05:00,
2013-09-21 13:10:00,81.7,60.2,29.79,WSW,238,5.0,9.0,48,0.00,,,0.00,WUHU216DAVISVP2,2013-09-21 20:10:00,
2013-09-21 13:15:00,81.9,59.8,29.80,SSW,200,1.0,9.0,47,0.00,,,0.00,WUHU216DAVISVP2,2013-09-21 20:15:00,
2013-09-21 13:20:00,81.2,59.7,29.80,SSW,209,4.0,12.0,48,0.00,,,0.00,WUHU216DAVISVP2,2013-09-21 20:20:00,
2013-09-21 13:25:00,81.1,59.0,29.80,SSE,165,2.0,12.0,47,0.00,,,0.00,WUHU216DAVISVP2,2013-09-21 20:25:00,
2013-09-21 13:30:00,81.1,59.6,29.79,South,188,5.0,10.0,48,0.00,,,0.00,WUHU216DAVISVP2,2013-09-21 20:30:00,
2013-09-21 13:35:00,81.0,60.1,29.79,SSW,203,7.0,12.0,49,0.00,,,0.00,WUHU216DAVISVP2,2013-09-21 20:35:00,
2013-09-21 13:40:00,80.8,59.4,29.79,South,173,0.0,12.0,48,0.00,,,0.00,WUHU216DAVISVP2,2013-09-21 20:40:00,
2013-09-21 13:45:00,81.0,60.1,29.78,SW,214,8.0,9.0,49,0.00,,,0.00,WUHU216DAVISVP2,2013-09-21 20:45:00,
2013-09-21 13:50:00,81.3,59.8,29.78,South,186,0.0,11.0,48,0.00,,,0.00,WUHU216DAVISVP2,2013-09-21 20:50:00,
2013-09-21 13:55:00,81.5,58.8,29.77,SSE,159,0.0,11.0,46,0.00,,,0.00,WUHU216DAVISVP2,2013-09-21 20:55:00,
2013-09-21 14:00:00,81.8,59.0,29.76,ESE,117,6.0,11.0,46,0.00,,,0.00,WUHU216DAVISVP2,2013-09-21 21:00:00,
2013-09-21 14:05:00,82.2,59.4,29.76,SSW,202,8.0,9.0,46,0.00,,,0.00,WUHU216DAVISVP2,2013-09-21 21:05:00,
2013-09-21 14:10:00,82.5,58.4,29.76,ESE,115,4.0,11.0,44,0.00,,,0.00,WUHU216DAVISVP2,2013-09-21 21:10:00,
2013-09-21 14:15:00,82.3,58.2,29.76,SSW,202,6.0,11.0,44,0.00,,,0.00,WUHU216DAVISVP2,2013-09-21 21:15:00,
2013-09-21 14:20:00,81.8,57.8,29.76,SSW,192,7.0,10.0,44,0.00,,,0.00,WUHU216DAVISVP2,2013-09-21 21:20:00,
2013-09-21 14:25:00,81.7,58.3,29.75,SSW,192,0.0,10.0,45,0.00,,,0.00,WUHU216DAVISVP2,2013-09-21 21:25:00,
2013-09-21 14:30:00,81.8,58.4,29.75,SSW,192,0.0,7.0,45,0.00,,,0.00,WUHU216DAVISVP2,2013-09-21 21:30:00,
2013-09-21 14:35:00,81.7,58.3,29.75,SSW,192,0.0,0.0,45,0.00,,,0.00,WUHU216DAVISVP2,2013-09-21 21:35:00,
2013-09-21 14:40:00,81.6,58.2,29.75,SSW,198,3.0,6.0,45,0.00,,,0.00,WUHU216DAVISVP2,2013-09-21 21:40:00,
2013-09-21 14:45:00,81.5,58.1,29.75,SSE,156,0.0,7.0,45,0.00,,,0.00,WUHU216DAVISVP2,2013-09-21 21:45:00,
2013-09-21 14:50:00,81.4,58.7,29.75,SE,140,0.0,7.0,46,0.00,,,0.00,WUHU216DAVISVP2,2013-09-21 21:50:00,
2013-09-21 14:55:00,81.2,57.9,29.74,SE,134,0.0,5.0,45,0.00,,,0.00,WUHU216DAVISVP2,2013-09-21 21:55:00,
2013-09-21 15:00:00,81.0,57.7,29.74,SE,134,0.0,5.0,45,0.00,,,0.00,WUHU216DAVISVP2,2013-09-21 22:00:00,
2013-09-21 15:05:00,80.8,58.1,29.74,WNW,298,4.0,6.0,46,0.00,,,0.00,WUHU216DAVISVP2,2013-09-21 22:05:00,
2013-09-21 15:10:00,80.6,58.6,29.74,NW,313,8.0,11.0,47,0.00,,,0.00,WUHU216DAVISVP2,2013-09-21 22:10:00,
2013-09-21 15:15:00,80.7,58.7,29.73,WNW,298,4.0,11.0,47,0.00,,,0.00,WUHU216DAVISVP2,2013-09-21 22:15:00,
2013-09-21 15:20:00,81.2,59.1,29.73,West,276,4.0,10.0,47,0.00,,,0.00,WUHU216DAVISVP2,2013-09-21 22:20:00,
2013-09-21 15:25:00,81.3,58.6,29.73,WNW,288,6.0,10.0,46,0.00,,,0.00,WUHU216DAVISVP2,2013-09-21 22:25:00,
2013-09-21 15:30:00,81.2,58.5,29.73,WNW,288,4.0,10.0,46,0.00,,,0.00,WUHU216DAVISVP2,2013-09-21 22:30:00,
2013-09-21 15:35:00,81.3,58.0,29.73,West,280,6.0,11.0,45,0.00,,,0.00,WUHU216DAVISVP2,2013-09-21 22:35:00,
2013-09-21 15:40:00,81.4,57.4,29.73,SSW,211,0.0,11.0,44,0.00,,,0.00,WUHU216DAVISVP2,2013-09-21 22:40:00,
2013-09-21 15:45:00,81.2,56.6,29.73,SSW,196,2.0,13.0,43,0.00,,,0.00,WUHU216DAVISVP2,2013-09-21 22:45:00,
2013-09-21 15:50:00,81.1,56.5,29.72,SSW,213,6.0,13.0,43,0.00,,,0.00,WUHU216DAVISVP2,2013-09-21 22:50:00,
2013-09-21 15:55:00,80.7,55.5,29.72,SSW,211,3.0,12.0,42,0.00,,,0.00,WUHU216DAVISVP2,2013-09-21 22:55:00,
2013-09-21 16:00:00,80.5,55.3,29.72,SW,223,8.0,12.0,42,0.00,,,0.00,WUHU216DAVISVP2,2013-09-21 23:00:00,
2013-09-21 16:05:00,80.4,55.2,29.72,SW,214,4.0,11.0,42,0.00,,,0.00,WUHU216DAVISVP2,2013-09-21 23:05:00,
2013-09-21 16:10:00,80.4,55.2,29.72,WSW,256,5.0,11.0,42,0.00,,,0.00,WUHU216DAVISVP2,2013-09-21 23:10:00,
2013-09-21 16:15:00,80.5,57.2,29.72,SSW,198,7.0,10.0,45,0.00,,,0.00,WUHU216DAVISVP2,2013-09-21 23:15:00,
2013-09-21 16:20:00,80.5,53.9,29.72,SW,220,0.0,13.0,40,0.00,,,0.00,WUHU216DAVISVP2,2013-09-21 23:20:00,
2013-09-21 16:25:00,81.0,52.9,29.72,SSW,198,5.0,15.0,38,0.00,,,0.00,WUHU216DAVISVP2,2013-09-21 23:25:00,
2013-09-21 16:30:00,81.4,51.8,29.72,SSW,198,7.0,15.0,36,0.00,,,0.00,WUHU216DAVISVP2,2013-09-21 23:30:00,
2013-09-21 16:35:00,81.5,52.0,29.72,SW,215,4.0,13.0,36,0.00,,,0.00,WUHU216DAVISVP2,2013-09-21 23:35:00,
2013-09-21 16:40:00,81.6,51.2,29.71,SW,229,12.0,13.0,35,0.00,,,0.00,WUHU216DAVISVP2,2013-09-21 23:40:00,
2013-09-21 16:45:00,81.6,50.4,29.71,West,276,6.0,17.0,34,0.00,,,0.00,WUHU216DAVISVP2,2013-09-21 23:45:00,
2013-09-21 16:50:00,81.4,49.5,29.72,SW,231,5.0,17.0,33,0.00,,,0.00,WUHU216DAVISVP2,2013-09-21 23:50:00,
2013-09-21 16:55:00,81.3,48.6,29.72,WSW,240,5.0,17.0,32,0.00,,,0.00,WUHU216DAVISVP2,2013-09-21 23:55:00,
2013-09-21 17:00:00,81.1,48.4,29.72,West,263,8.0,14.0,32,0.00,,,0.00,WUHU216DAVISVP2,2013-09-22 00:00:00,
2013-09-21 17:05:00,81.1,47.5,29.72,SSW,200,4.0,15.0,31,0.00,,,0.00,WUHU216DAVISVP2,2013-09-22 00:05:00,
2013-09-21 17:10:00,80.9,47.3,29.72,WSW,252,3.0,15.0,31,0.00,,,0.00,WUHU216DAVISVP2,2013-09-22 00:10:00,
2013-09-21 17:15:00,80.7,46.2,29.72,WSW,241,5.0,16.0,30,0.00,,,0.00,WUHU216DAVISVP2,2013-09-22 00:15:00,
2013-09-21 17:20:00,80.6,46.2,29.72,WSW,238,5.0,16.0,30,0.00,,,0.00,WUHU216DAVISVP2,2013-09-22 00:20:00,
2013-09-21 17:25:00,80.4,46.8,29.72,SSW,207,5.0,13.0,31,0.00,,,0.00,WUHU216DAVISVP2,2013-09-22 00:25:00,
2013-09-21 17:30:00,80.2,46.7,29.72,WSW,253,2.0,11.0,31,0.00,,,0.00,WUHU216DAVISVP2,2013-09-22 00:30:00,
2013-09-21 17:35:00,80.0,47.5,29.72,West,259,5.0,12.0,32,0.00,,,0.00,WUHU216DAVISVP2,2013-09-22 00:35:00,
2013-09-21 17:40:00,79.8,48.9,29.72,SW,215,6.0,15.0,34,0.00,,,0.00,WUHU216DAVISVP2,2013-09-22 00:40:00,
2013-09-21 17:45:00,79.4,52.3,29.73,West,269,11.0,15.0,39,0.00,,,0.00,WUHU216DAVISVP2,2013-09-22 00:45:00,
2013-09-21 17:50:00,78.1,55.6,29.73,NW,310,6.0,19.0,46,0.00,,,0.00,WUHU216DAVISVP2,2013-09-22 00:50:00,
2013-09-21 17:55:00,76.9,56.3,29.74,NW,311,7.0,19.0,49,0.00,,,0.00,WUHU216DAVISVP2,2013-09-22 00:55:00,
2013-09-21 18:00:00,75.9,55.9,29.75,WNW,297,8.0,21.0,50,0.00,,,0.00,WUHU216DAVISVP2,2013-09-22 01:00:00,
2013-09-21 18:05:00,74.5,55.8,29.75,NW,306,15.0,26.0,52,0.00,,,0.00,WUHU216DAVISVP2,2013-09-22 01:05:00,
2013-09-21 18:10:00,73.7,55.5,29.75,NW,324,11.0,26.0,53,0.00,,,0.00,WUHU216DAVISVP2,2013-09-22 01:10:00,
2013-09-21 18:15:00,73.0,56.0,29.75,NNW,331,8.0,19.0,55,0.00,,,0.00,WUHU216DAVISVP2,2013-09-22 01:15:00,
2013-09-21 18:20:00,72.5,56.1,29.76,NW,313,11.0,19.0,56,0.00,,,0.00,WUHU216DAVISVP2,2013-09-22 01:20:00,
2013-09-21 18:25:00,72.2,55.3,29.76,NW,320,15.0,21.0,55,0.00,,,0.00,WUHU216DAVISVP2,2013-09-22 01:25:00,
2013-09-21 18:30:00,71.9,54.3,29.76,WNW,301,14.0,27.0,54,0.00,,,0.00,WUHU216DAVISVP2,2013-09-22 01:30:00,
2013-09-21 18:35:00,71.5,53.5,29.76,NW,315,6.0,27.0,53,0.00,,,0.00,WUHU216DAVISVP2,2013-09-22 01:35:00,
2013-09-21 18:40:00,71.2,54.7,29.77,WNW,300,14.0,26.0,56,0.00,,,0.00,WUHU216DAVISVP2,2013-09-22 01:40:00,
2013-09-21 18:45:00,70.3,54.5,29.77,NW,310,20.0,26.0,57,0.00,,,0.00,WUHU216DAVISVP2,2013-09-22 01:45:00,
2013-09-21 18:50:00,69.2,54.4,29.78,WNW,290,8.0,25.0,59,0.00,,,0.00,WUHU216DAVISVP2,2013-09-22 01:50:00,
2013-09-21 18:55:00,68.5,54.2,29.78,NW,323,20.0,27.0,60,0.00,,,0.00,WUHU216DAVISVP2,2013-09-22 01:55:00,
2013-09-21 19:00:00,68.2,54.4,29.78,NW,306,18.0,27.0,61,0.00,,,0.00,WUHU216DAVISVP2,2013-09-22 02:00:00,
2013-09-21 19:05:00,67.9,54.6,29.78,NW,318,15.0,25.0,62,0.00,,,0.00,WUHU216DAVISVP2,2013-09-22 02:05:00,
2013-09-21 19:10:00,67.6,54.7,29.78,NW,321,12.0,28.0,63,0.00,,,0.00,WUHU216DAVISVP2,2013-09-22 02:10:00,
2013-09-21 19:15:00,67.4,55.0,29.79,NNW,345,12.0,28.0,64,0.00,,,0.00,WUHU216DAVISVP2,2013-09-22 02:15:00,
2013-09-21 19:20:00,67.2,55.2,29.79,NW,317,11.0,23.0,65,0.00,,,0.00,WUHU216DAVISVP2,2013-09-22 02:20:00,
2013-09-21 19:25:00,67.0,55.4,29.80,NNW,330,10.0,23.0,66,0.00,,,0.00,WUHU216DAVISVP2,2013-09-22 02:25:00,
2013-09-21 19:30:00,66.9,55.8,29.80,NW,313,15.0,24.0,67,0.00,,,0.00,WUHU216DAVISVP2,2013-09-22 02:30:00,
2013-09-21 19:35:00,66.7,55.6,29.80,NNW,329,18.0,24.0,67,0.00,,,0.00,WUHU216DAVISVP2,2013-09-22 02:35:00,
2013-09-21 19:40:00,66.5,55.2,29.81,NW,319,7.0,21.0,67,0.00,,,0.00,WUHU216DAVISVP2,2013-09-22 02:40:00,
2013-09-21 19:45:00,66.3,54.6,29.81,NW,322,9.0,21.0,66,0.00,,,0.00,WUHU216DAVISVP2,2013-09-22 02:45:00,
2013-09-21 19:50:00,66.2,54.5,29.81,NNW,344,12.0,21.0,66,0.00,,,0.00,WUHU216DAVISVP2,2013-09-22 02:50:00,
2013-09-21 19:55:00,66.0,54.3,29.81,NW,319,5.0,18.0,66,0.00,,,0.00,WUHU216DAVISVP2,2013-09-22 02:55:00,
2013-09-21 20:00:00,65.9,54.2,29.81,NNW,330,8.0,18.0,66,0.00,,,0.00,WUHU216DAVISVP2,2013-09-22 03:00:00,
2013-09-21 20:05:00,65.7,54.0,29.82,NNW,334,1.0,18.0,66,0.00,,,0.00,WUHU216DAVISVP2,2013-09-22 03:05:00,
2013-09-21 20:10:00,65.6,53.9,29.82,NNW,329,3.0,19.0,66,0.00,,,0.00,WUHU216DAVISVP2,2013-09-22 03:10:00,
2013-09-21 20:15:00,65.5,54.2,29.83,WNW,302,4.0,19.0,67,0.00,,,0.00,WUHU216DAVISVP2,2013-09-22 03:15:00,
2013-09-21 20:20:00,65.4,54.3,29.83,North,355,6.0,12.0,67,0.00,,,0.00,WUHU216DAVISVP2,2013-09-22 03:20:00,
2013-09-21 20:25:00,65.4,54.3,29.83,NNW,348,8.0,12.0,67,0.00,,,0.00,WUHU216DAVISVP2,2013-09-22 03:25:00,
2013-09-21 20:30:00,65.3,54.6,29.84,NNW,346,4.0,12.0,68,0.00,,,0.00,WUHU216DAVISVP2,2013-09-22 03:30:00,
2013-09-21 20:35:00,65.2,54.4,29.84,North,355,5.0,10.0,68,0.00,,,0.00,WUHU216DAVISVP2,2013-09-22 03:35:00,
2013-09-21 20:40:00,65.0,54.3,29.84,NNW,332,9.0,12.0,68,0.00,,,0.00,WUHU216DAVISVP2,2013-09-22 03:40:00,
2013-09-21 20:45:00,64.8,53.7,29.84,NNW,331,4.0,13.0,67,0.00,,,0.00,WUHU216DAVISVP2,2013-09-22 03:45:00,
2013-09-21 20:50:00,64.6,53.6,29.84,NNW,333,5.0,13.0,67,0.00,,,0.00,WUHU216DAVISVP2,2013-09-22 03:50:00,
2013-09-21 20:55:00,64.4,53.4,29.84,NW,319,10.0,12.0,67,0.00,,,0.00,WUHU216DAVISVP2,2013-09-22 03:55:00,
2013-09-21 21:00:00,64.2,53.2,29.84,NNW,331,11.0,13.0,67,0.00,,,0.00,WUHU216DAVISVP2,2013-09-22 04:00:00,
2013-09-21 21:05:00,64.0,53.0,29.84,NNW,328,7.0,13.0,67,0.00,,,0.00,WUHU216DAVISVP2,2013-09-22 04:05:00,
2013-09-21 21:10:00,63.8,52.8,29.84,North,355,7.0,11.0,67,0.00,,,0.00,WUHU216DAVISVP2,2013-09-22 04:10:00,
2013-09-21 21:15:00,63.6,53.0,29.84,NNW,331,4.0,11.0,68,0.00,,,0.00,WUHU216DAVISVP2,2013-09-22 04:15:00,
2013-09-21 21:20:00,63.4,52.8,29.85,NNW,346,6.0,10.0,68,0.00,,,0.00,WUHU216DAVISVP2,2013-09-22 04:20:00,
2013-09-21 21:25:00,63.2,52.6,29.85,NNW,340,7.0,9.0,68,0.00,,,0.00,WUHU216DAVISVP2,2013-09-22 04:25:00,
2013-09-21 21:30:00,63.0,52.8,29.85,NNW,338,0.0,9.0,69,0.00,,,0.00,WUHU216DAVISVP2,2013-09-22 04:30:00,
2013-09-21 21:35:00,62.9,52.7,29.85,NNW,337,6.0,9.0,69,0.00,,,0.00,WUHU216DAVISVP2,2013-09-22 04:35:00,
2013-09-21 21:40:00,62.7,52.5,29.85,NNW,331,1.0,8.0,69,0.00,,,0.00,WUHU216DAVISVP2,2013-09-22 04:40:00,
2013-09-21 21:45:00,62.6,52.8,29.85,NNW,331,0.0,8.0,70,0.00,,,0.00,WUHU216DAVISVP2,2013-09-22 04:45:00,
2013-09-21 21:50:00,62.4,52.6,29.85,NNW,331,0.0,7.0,70,0.00,,,0.00,WUHU216DAVISVP2,2013-09-22 04:50:00,
2013-09-21 21:55:00,62.3,52.5,29.85,NNW,331,0.0,7.0,70,0.00,,,0.00,WUHU216DAVISVP2,2013-09-22 04:55:00,
2013-09-21 22:00:00,62.2,52.4,29.85,NNW,331,2.0,7.0,70,0.00,,,0.00,WUHU216DAVISVP2,2013-09-22 05:00:00,
2013-09-21 22:05:00,62.0,52.6,29.86,NNW,331,0.0,4.0,71,0.00,,,0.00,WUHU216DAVISVP2,2013-09-22 05:05:00,
2013-09-21 22:10:00,61.9,52.5,29.86,NW,325,5.0,7.0,71,0.00,,,0.00,WUHU216DAVISVP2,2013-09-22 05:10:00,
2013-09-21 22:15:00,61.8,52.4,29.86,NW,325,3.0,7.0,71,0.00,,,0.00,WUHU216DAVISVP2,2013-09-22 05:15:00,
2013-09-21 22:20:00,61.7,52.7,29.86,NW,321,0.0,6.0,72,0.00,,,0.00,WUHU216DAVISVP2,2013-09-22 05:20:00,
2013-09-21 22:25:00,61.7,52.7,29.86,NW,306,0.0,6.0,72,0.00,,,0.00,WUHU216DAVISVP2,2013-09-22 05:25:00,
2013-09-21 22:30:00,61.6,52.6,29.87,NW,306,3.0,6.0,72,0.00,,,0.00,WUHU216DAVISVP2,2013-09-22 05:30:00,
2013-09-21 22:35:00,61.5,52.9,29.87,NW,306,1.0,5.0,73,0.00,,,0.00,WUHU216DAVISVP2,2013-09-22 05:35:00,
2013-09-21 22:40:00,61.4,52.7,29.86,NW,306,1.0,4.0,73,0.00,,,0.00,WUHU216DAVISVP2,2013-09-22 05:40:00,
2013-09-21 22:45:00,61.2,52.5,29.87,NW,306,5.0,5.0,73,0.00,,,0.00,WUHU216DAVISVP2,2013-09-22 05:45:00,
2013-09-21 22:50:00,61.1,52.7,29.87,NW,306,0.0,5.0,74,0.00,,,0.00,WUHU216DAVISVP2,2013-09-22 05:50:00,
2013-09-21 22:55:00,60.9,52.6,29.87,NW,306,3.0,5.0,74,0.00,,,0.00,WUHU216DAVISVP2,2013-09-22 05:55:00,
2013-09-21 23:00:00,60.7,52.4,29.87,NW,306,0.0,5.0,74,0.00,,,0.00,WUHU216DAVISVP2,2013-09-22 06:00:00,
2013-09-21 23:05:00,60.7,52.4,29.87,NW,305,2.0,6.0,74,0.00,,,0.00,WUHU216DAVISVP2,2013-09-22 06:05:00,
2013-09-21 23:10:00,60.6,52.3,29.87,NW,305,3.0,6.0,74,0.00,,,0.00,WUHU216DAVISVP2,2013-09-22 06:10:00,
2013-09-21 23:15:00,60.5,52.2,29.87,NW,305,5.0,5.0,74,0.00,,,0.00,WUHU216DAVISVP2,2013-09-22 06:15:00,
2013-09-21 23:20:00,60.4,52.4,29.87,NW,306,4.0,6.0,75,0.00,,,0.00,WUHU216DAVISVP2,2013-09-22 06:20:00,
2013-09-21 23:25:00,60.4,52.4,29.87,NW,306,0.0,6.0,75,0.00,,,0.00,WUHU216DAVISVP2,2013-09-22 06:25:00,
2013-09-21 23:30:00,60.3,52.3,29.87,NW,306,3.0,6.0,75,0.00,,,0.00,WUHU216DAVISVP2,2013-09-22 06:30:00,
2013-09-21 23:35:00,60.2,52.2,29.87,NW,306,0.0,5.0,75,0.00,,,0.00,WUHU216DAVISVP2,2013-09-22 06:35:00,
2013-09-21 23:40:00,60.1,52.1,29.87,NW,306,2.0,6.0,75,0.00,,,0.00,WUHU216DAVISVP2,2013-09-22 06:40:00,
2013-09-21 23:45:00,60.0,52.1,29.87,NW,306,0.0,6.0,75,0.00,,,0.00,WUHU216DAVISVP2,2013-09-22 06:45:00,
2013-09-21 23:50:00,59.8,51.9,29.87,NW,306,4.0,5.0,75,0.00,,,0.00,WUHU216DAVISVP2,2013-09-22 06:50:00,
2013-09-21 23:55:00,59.6,52.1,29.87,NW,306,0.0,5.0,76,0.00,,,0.00,WUHU216DAVISVP2,2013-09-22 06:55:00,